Oyster, VA (23419)

2:34 AM EDT on July 14, 2014 (GMT -0400)
Davis Wharf (KVABELLE2) Elev 0 ft | 37.55 °N, 75.88 °W | Change Station

Current weather conditions updated 9 minutes ago

Clear
Clear
79.9 °F
Feels Like 84 °F
N
13.0
Wind Variable Wind from SW

Today is forecast to be nearly the same temperature as yesterday.

Today
High -- | Low -- °F
--% Chance of Precip.
Yesterday
High -- | Low -- °F
Precip. -- in
5:54 AM 8:24 PM
Waning Gibbous, 95% visible
Pressure 30.00 in
Visibility 10.0 miles
Clouds Clear
Heat Index 84 °F
Dew Point 74 °F
Humidity 82%
Rainfall 0.00 in
Snow Depth Not available.
UV 0 out of 12
Pollen 4.70 out of 12
Air Quality Not available.
Flu Activity Sporadic
METAR KLFI 140558Z AUTO 23007KT 10SM CLR 26/25 A2998 RMK AO2 SLP159 T02580250 10299 20258 57012

More Conditions Fewer Conditions

Pressure 30.00 in
Visibility 10.0 miles
Clouds Clear
Heat Index 84 °F
Dew Point 74 °F
Humidity 82%
Rainfall 0.00 in
Snow Depth Not available.
UV 0 out of 12
Pollen 4.70 out of 12
Air Quality Not available.
Flu Activity Sporadic
METAR KLFI 140558Z AUTO 23007KT 10SM CLR 26/25 A2998 RMK AO2 SLP159 T02580250 10299 20258 57012

More Conditions Fewer Conditions

10-Day Weather Forecast

Almanac

Astronomy

Jul. 14, 2014 Rise Set
Actual Time 5:54 AM EDT 8:24 PM EDT
Civil Twilight 5:24 AM EDT 8:54 PM EDT
Nautical Twilight 4:46 AM EDT 9:31 PM EDT
Astronomical Twilight 4:05 AM EDT 10:13 PM EDT
Moon 9:57 PM EDT 8:30 AM EDT
Length of Visible Light 15h 30m
Length of Day
14h 29m
Tomorrow will be 1m 10s shorter.
Waning Gibbous, 95% of the Moon is Illuminated
Today
Waning Gibbous
Jul 18
Last Quarter
Jul 26
New
Aug 3
First Quarter
Aug 10
Full

Today's Extremes

State Highs State Lows

Community

WunderPhotos

Upload Photos

1,733,565 photos uploaded!

Nearby

Snow Depth

Station Depth Elevation
No new snow has been reported.

Earthquake Activity

City Distance Mag. Time & Date
No recent earthquake activity has been reported nearby.
Minimum magnitude displayed is 2.5.

Coastal Water Temperatures

Place Temperature
Kiptopeke, VA 78.1 °F
Wachapreague, VA 82.0 °F
Chesapeake Bay Bridge Tunnel, VA 73.9 °F
Money Point, VA 82.0 °F
Sewells Point, VA 80.1 °F

Nearby Weather Stations

Station Location Temp. Heat Index Dew Point Humidity Wind Precip. Elev Updated Type
Davis Wharf, Belle Haven, VA 79.9 °F 84 °F 74 °F 82% SW  at  13.0 mph - / hr 0 ft 2:24 AM EDT Normal
Morning Ride Farm, Onemo, VA 78.3 °F 80 °F 62 °F 57% SW  at  2.0 mph 0.00 in / hr 9 ft 2:34 AM EDT Rapid Fire

Show More Stations Show Fewer Stations